createdAt,value
2023-04-16T07:38:01.444Z,34.45
2023-04-16T07:40:30.910Z,39.63
2023-04-16T07:43:00.242Z,41.60
2023-04-16T07:45:29.154Z,38.72
2023-04-16T07:47:58.350Z,35.88
2023-04-16T07:50:27.489Z,33.33
2023-04-16T07:52:56.480Z,32.42
2023-04-16T07:55:27.226Z,30.27
2023-04-16T07:57:59.440Z,34.03
2023-04-16T08:00:28.518Z,35.80
2023-04-16T08:02:57.909Z,30.42
2023-04-16T08:05:27.055Z,33.83
2023-04-16T08:07:56.227Z,34.72
2023-04-16T08:10:27.780Z,30.15
2023-04-16T08:12:56.992Z,32.22
2023-04-16T08:15:26.028Z,30.50
2023-04-16T08:17:55.165Z,27.27
2023-04-16T08:20:24.281Z,30.45
2023-04-16T08:22:54.886Z,30.40
2023-04-16T08:25:25.132Z,30.65
2023-04-16T08:27:55.637Z,31.58
2023-04-16T08:30:24.881Z,28.50
2023-04-16T08:32:54.772Z,23.58
2023-04-16T08:35:23.957Z,28.70
2023-04-16T08:37:54.158Z,26.77
2023-04-16T08:40:23.327Z,25.75
2023-04-16T08:42:57.326Z,26.00
2023-04-16T08:45:27.892Z,27.58
2023-04-16T08:47:57.017Z,29.35
2023-04-16T08:50:27.524Z,27.77
2023-04-16T08:53:01.161Z,27.35
2023-04-16T08:55:38.043Z,23.55
2023-04-16T08:58:11.432Z,24.45
2023-04-16T09:00:42.440Z,27.35
2023-04-16T09:03:12.361Z,28.98
2023-04-16T09:05:43.400Z,28.23
2023-04-16T09:08:12.958Z,37.75
2023-04-16T09:10:42.488Z,27.80
2023-04-16T09:13:13.762Z,28.40
2023-04-16T09:15:43.757Z,24.42
2023-04-16T09:18:13.008Z,28.67
2023-04-16T09:20:42.130Z,27.95
2023-04-16T09:23:12.199Z,24.35
2023-04-16T09:25:41.279Z,26.20
2023-04-16T09:28:12.723Z,27.17
2023-04-16T09:30:41.913Z,27.75
2023-04-16T09:33:16.924Z,24.35
2023-04-16T09:35:49.697Z,21.15
2023-04-16T09:38:19.244Z,25.60
2023-04-16T09:40:48.917Z,25.00
2023-04-16T09:43:20.529Z,25.23
2023-04-16T09:45:53.838Z,22.70
2023-04-16T09:48:31.446Z,25.75
2023-04-16T09:51:01.771Z,22.30
2023-04-16T09:53:31.994Z,22.55
2023-04-16T09:56:02.677Z,22.70
2023-04-16T09:58:33.546Z,22.33
2023-04-16T10:01:03.772Z,20.83
2023-04-16T10:03:33.905Z,27.40
2023-04-16T10:06:08.686Z,23.30
2023-04-16T10:08:37.833Z,23.92
2023-04-16T10:11:07.238Z,22.95
2023-04-16T10:13:37.736Z,22.00
2023-04-16T10:16:08.006Z,21.45
2023-04-16T10:18:39.007Z,23.85
2023-04-16T10:21:08.927Z,25.92
2023-04-16T10:23:38.172Z,21.83
2023-04-16T10:26:41.093Z,22.30
2023-04-16T10:29:13.642Z,22.17
2023-04-16T10:31:43.886Z,24.60
2023-04-16T10:34:13.881Z,26.63
2023-04-16T10:36:43.221Z,23.27
2023-04-16T10:39:16.889Z,22.92
2023-04-16T10:41:47.397Z,22.05
2023-04-16T10:44:20.057Z,36.40
2023-04-16T10:46:51.042Z,20.90
2023-04-16T10:49:21.656Z,22.45
2023-04-16T10:51:58.398Z,22.52
2023-04-16T10:54:29.162Z,23.77
2023-04-16T10:57:01.636Z,21.50
2023-04-16T10:59:35.295Z,24.65
2023-04-16T11:02:09.520Z,22.92
2023-04-16T11:04:40.336Z,23.75
2023-04-16T11:07:17.204Z,23.65
2023-04-16T11:09:48.330Z,22.00
2023-04-16T11:12:18.874Z,25.67
2023-04-16T11:14:52.169Z,22.05
2023-04-16T11:17:21.815Z,26.58
2023-04-16T11:19:51.019Z,24.23
2023-04-16T11:22:23.369Z,22.38
2023-04-16T11:24:56.521Z,23.05
2023-04-16T11:27:25.838Z,23.98
2023-04-16T11:30:04.640Z,24.50
2023-04-16T11:32:34.828Z,23.40
2023-04-16T11:35:05.579Z,23.88
2023-04-16T11:37:35.514Z,29.98
2023-04-16T11:40:07.307Z,22.17
2023-04-16T11:42:38.283Z,24.33
2023-04-16T11:45:10.719Z,22.25
2023-04-16T11:47:47.428Z,25.40
2023-04-16T11:50:21.488Z,19.60
2023-04-16T11:52:51.079Z,24.20
2023-04-16T11:55:21.082Z,27.75
2023-04-16T11:57:50.894Z,24.45
2023-04-16T12:00:24.597Z,27.45
2023-04-16T12:02:55.661Z,26.95
2023-04-16T12:05:32.647Z,24.63
2023-04-16T12:08:03.496Z,27.45
2023-04-16T12:10:35.215Z,29.70
2023-04-16T12:13:14.321Z,26.13
2023-04-16T12:15:49.442Z,21.95
2023-04-16T12:18:19.128Z,28.10
2023-04-16T12:20:48.964Z,23.88
2023-04-16T12:23:28.321Z,37.40
2023-04-16T12:25:59.957Z,27.13
2023-04-16T12:28:31.443Z,32.30
2023-04-16T12:31:02.920Z,30.70
2023-04-16T12:33:32.652Z,30.17
2023-04-16T12:36:02.220Z,27.65
2023-04-16T12:38:32.247Z,37.13
2023-04-16T12:41:02.480Z,30.58
2023-04-16T12:43:31.610Z,29.00
2023-04-16T12:46:04.160Z,26.48
2023-04-16T12:48:34.074Z,26.55
2023-04-16T12:51:03.156Z,25.15
2023-04-16T12:53:32.166Z,21.27
2023-04-16T12:56:01.211Z,24.05
2023-04-16T12:58:30.719Z,22.23
2023-04-16T13:01:02.032Z,27.85
2023-04-16T13:03:31.482Z,24.63
2023-04-16T13:06:02.522Z,25.67
2023-04-16T13:08:32.999Z,24.88
2023-04-16T13:11:02.292Z,24.67
2023-04-16T13:13:31.443Z,26.40
2023-04-16T13:16:09.721Z,23.00
2023-04-16T13:18:40.404Z,26.20
2023-04-16T13:21:10.365Z,22.77
2023-04-16T13:23:39.379Z,21.65
2023-04-16T13:26:08.558Z,21.75
2023-04-16T13:28:39.699Z,25.88
2023-04-16T13:31:10.581Z,20.05
2023-04-16T13:33:40.384Z,19.75
2023-04-16T13:36:09.643Z,18.23
2023-04-16T13:38:38.811Z,19.75
2023-04-16T13:41:08.085Z,23.17
2023-04-16T13:43:37.311Z,27.95
2023-04-16T13:46:06.590Z,22.52
2023-04-16T13:48:37.204Z,20.50
2023-04-16T13:51:06.394Z,18.02
2023-04-16T13:53:35.605Z,21.83
2023-04-16T13:56:05.320Z,17.02
2023-04-16T13:58:34.626Z,15.30
2023-04-16T14:01:04.062Z,17.30
2023-04-16T14:03:36.429Z,18.50
2023-04-16T14:06:07.595Z,18.08
2023-04-16T14:08:36.874Z,16.42
2023-04-16T14:11:06.708Z,16.98
2023-04-16T14:13:35.669Z,17.25
2023-04-16T14:16:05.112Z,19.77
2023-04-16T14:18:34.256Z,18.90
2023-04-16T14:21:03.716Z,18.98
2023-04-16T14:23:34.476Z,18.10
2023-04-16T14:26:03.918Z,20.25
2023-04-16T14:28:32.879Z,18.13
2023-04-16T14:31:01.991Z,19.58
2023-04-16T14:33:32.753Z,18.67
2023-04-16T14:36:03.194Z,20.50
2023-04-16T14:38:34.875Z,22.77
2023-04-16T14:41:03.920Z,19.00
2023-04-16T14:43:32.901Z,18.00
2023-04-16T14:46:02.507Z,21.85
2023-04-16T14:48:32.235Z,19.83
2023-04-16T14:51:01.583Z,18.00
2023-04-16T14:53:30.881Z,22.52
2023-04-16T14:56:01.971Z,21.67
2023-04-16T14:58:31.680Z,23.15
2023-04-16T15:01:01.186Z,22.48
2023-04-16T15:03:31.474Z,23.67
2023-04-16T15:06:00.738Z,22.38
2023-04-16T15:08:29.927Z,19.63
2023-04-16T15:10:58.918Z,20.98
2023-04-16T15:13:34.206Z,22.45
2023-04-16T15:18:32.181Z,19.33
2023-04-16T15:21:01.323Z,19.67
2023-04-16T15:23:30.631Z,20.88
2023-04-16T15:26:00.358Z,21.30
2023-04-16T15:28:31.238Z,19.75
2023-04-16T15:31:00.471Z,19.77
2023-04-16T15:33:29.684Z,18.42
2023-04-16T15:35:59.352Z,20.35
2023-04-16T15:38:30.010Z,22.83
2023-04-16T15:41:01.098Z,19.73
2023-04-16T15:43:32.032Z,18.83
2023-04-16T15:46:01.200Z,21.65
2023-04-16T15:48:30.565Z,21.35
2023-04-16T15:51:00.046Z,15.77
2023-04-16T15:53:29.632Z,23.27
2023-04-16T15:55:58.654Z,22.00
2023-04-16T15:58:27.872Z,24.30
2023-04-16T16:00:58.444Z,22.95
2023-04-16T16:03:28.153Z,23.17
2023-04-16T16:05:59.337Z,25.63
2023-04-16T16:08:34.697Z,20.55
2023-04-16T16:11:04.206Z,25.23
2023-04-16T16:13:33.641Z,27.75
2023-04-16T16:16:04.295Z,21.27
2023-04-16T16:18:33.983Z,20.02
2023-04-16T16:21:03.254Z,23.85
2023-04-16T16:23:32.248Z,22.90
2023-04-16T16:26:01.873Z,28.75
2023-04-16T16:28:31.159Z,20.63
2023-04-16T16:31:01.711Z,24.40
2023-04-16T16:33:32.731Z,20.95
2023-04-16T16:36:02.214Z,24.35
2023-04-16T16:38:31.444Z,23.58
2023-04-16T16:41:00.525Z,24.55
2023-04-16T16:43:29.910Z,27.05
2023-04-16T16:45:58.888Z,23.27
2023-04-16T16:48:28.158Z,22.33
2023-04-16T16:50:59.170Z,27.52
2023-04-16T16:53:28.409Z,20.88
2023-04-16T16:55:57.424Z,33.13
2023-04-16T16:58:27.844Z,27.13
2023-04-16T17:00:58.090Z,27.40
2023-04-16T17:03:27.315Z,27.05
2023-04-16T17:05:57.808Z,22.45
2023-04-16T17:08:27.052Z,36.08
2023-04-16T17:10:56.886Z,31.23
2023-04-16T17:13:26.121Z,26.48
2023-04-16T17:15:55.451Z,30.98
2023-04-16T17:18:24.491Z,28.20
2023-04-16T17:20:53.573Z,32.35
2023-04-16T17:23:24.329Z,28.48
2023-04-16T17:25:53.968Z,41.03
2023-04-16T17:28:23.085Z,34.72
2023-04-16T17:30:54.085Z,32.25
2023-04-16T17:33:23.210Z,35.90
2023-04-16T17:35:52.366Z,35.97
2023-04-16T17:38:21.406Z,36.50
2023-04-16T17:40:52.183Z,30.08
2023-04-16T17:43:21.733Z,37.03
2023-04-16T17:45:51.418Z,36.58
2023-04-16T17:48:21.124Z,38.75
2023-04-16T17:50:50.367Z,43.78
2023-04-16T17:53:19.486Z,36.85
2023-04-16T17:55:56.494Z,29.88
2023-04-16T17:58:26.798Z,33.35
2023-04-16T18:00:56.607Z,34.33
2023-04-16T18:03:26.434Z,41.50
2023-04-16T18:05:55.799Z,41.45
2023-04-16T18:08:25.515Z,43.33
2023-04-16T18:10:57.467Z,47.75
2023-04-16T18:13:27.720Z,40.15
2023-04-16T18:15:58.278Z,38.03
2023-04-16T18:18:28.014Z,42.13
2023-04-16T18:20:57.927Z,36.50
2023-04-16T18:23:27.623Z,38.22
2023-04-16T18:25:58.920Z,29.30
2023-04-16T18:28:28.885Z,33.63
2023-04-16T18:30:59.090Z,34.42
2023-04-16T18:33:52.589Z,32.03
2023-04-16T18:36:18.081Z,71.10
2023-04-16T18:38:59.980Z,43.25
2023-04-16T18:41:32.647Z,34.67
2023-04-16T18:44:02.553Z,36.38
2023-04-16T18:46:31.991Z,36.67
2023-04-16T18:49:01.405Z,33.38
2023-04-16T18:51:31.074Z,43.63
2023-04-16T18:54:00.529Z,46.50
2023-04-16T18:56:32.980Z,42.92
2023-04-16T18:59:02.326Z,40.42
2023-04-16T19:01:31.821Z,43.95
2023-04-16T19:04:01.891Z,47.58
2023-04-16T19:06:32.606Z,40.60
2023-04-16T19:09:01.994Z,41.55
2023-04-16T19:11:33.082Z,41.97
2023-04-16T19:14:03.881Z,45.67
2023-04-16T19:16:33.582Z,39.63
2023-04-16T19:19:02.894Z,39.28
2023-04-16T19:21:33.253Z,40.47
2023-04-16T19:24:02.611Z,47.80
2023-04-16T19:26:33.484Z,44.25
2023-04-16T19:29:02.766Z,42.75
2023-04-16T19:31:31.806Z,45.72
2023-04-16T19:34:01.126Z,45.83
2023-04-16T19:36:30.493Z,43.42
2023-04-16T19:38:59.520Z,45.40
2023-04-16T19:41:28.671Z,42.25
2023-04-16T19:43:59.189Z,42.70
2023-04-16T19:46:28.726Z,45.47
2023-04-16T19:48:58.155Z,37.10
2023-04-16T19:51:27.565Z,40.60
2023-04-16T19:53:59.047Z,37.92
2023-04-16T19:56:28.360Z,45.53
2023-04-16T19:58:59.246Z,51.25
2023-04-16T20:01:28.665Z,39.45
2023-04-16T20:03:57.787Z,40.05
2023-04-16T20:06:27.205Z,44.25
2023-04-16T20:08:57.599Z,41.88
2023-04-16T20:11:26.920Z,44.08
2023-04-16T20:13:56.445Z,40.58
2023-04-16T20:16:27.330Z,36.05
2023-04-16T20:18:57.374Z,39.75
2023-04-16T20:21:26.568Z,42.78
2023-04-16T20:23:56.118Z,50.35
2023-04-16T20:26:28.646Z,55.80
2023-04-16T20:28:57.583Z,47.60
2023-04-16T20:31:28.538Z,52.72
2023-04-16T20:33:57.709Z,50.58
2023-04-16T20:36:28.163Z,60.25
2023-04-16T20:38:57.232Z,71.78
2023-04-16T20:41:27.558Z,38.47
2023-04-16T20:43:56.715Z,38.88
2023-04-16T20:46:30.403Z,65.75
2023-04-16T20:49:01.534Z,49.53
2023-04-16T20:51:31.797Z,41.70
2023-04-16T20:54:01.366Z,35.47
2023-04-16T20:56:30.271Z,35.95
2023-04-16T20:58:59.592Z,44.58
